createdAt,value
2019-05-30T00:00:19.616Z,0.00
2019-05-30T00:01:19.632Z,0.00
2019-05-30T00:02:19.637Z,0.00
2019-05-30T00:03:19.667Z,0.00
2019-05-30T00:04:19.653Z,0.00
2019-05-30T00:05:19.664Z,0.00
2019-05-30T00:06:19.671Z,0.00
2019-05-30T00:07:19.679Z,0.00
2019-05-30T00:08:19.692Z,0.00
2019-05-30T00:09:19.696Z,0.00
2019-05-30T00:10:19.703Z,0.00
2019-05-30T00:11:19.709Z,0.00
2019-05-30T00:12:19.720Z,0.00
2019-05-30T00:13:19.729Z,0.00
2019-05-30T00:14:19.725Z,0.00
2019-05-30T00:15:19.738Z,0.00
2019-05-30T00:16:19.751Z,0.00
2019-05-30T00:17:19.757Z,0.00
2019-05-30T00:18:19.761Z,0.00
2019-05-30T00:19:19.775Z,0.00
2019-05-30T00:20:19.783Z,0.00
2019-05-30T00:21:19.791Z,0.00
2019-05-30T00:22:19.792Z,0.00
2019-05-30T00:24:19.810Z,0.00
2019-05-30T00:25:19.827Z,0.00
2019-05-30T00:26:19.830Z,0.00
2019-05-30T00:27:19.841Z,0.00
2019-05-30T00:28:19.840Z,0.00
2019-05-30T00:29:19.850Z,0.00
2019-05-30T00:30:24.327Z,0.00
2019-05-30T00:31:19.863Z,0.00
2019-05-30T00:32:19.876Z,0.00
2019-05-30T00:33:19.876Z,0.00
2019-05-30T00:34:19.888Z,0.00
2019-05-30T00:35:19.895Z,0.00
2019-05-30T00:36:19.898Z,0.00
2019-05-30T00:37:19.913Z,0.00
2019-05-30T00:38:19.914Z,0.00
2019-05-30T00:39:19.940Z,0.00
2019-05-30T00:40:19.933Z,0.00
2019-05-30T00:41:19.944Z,0.00
2019-05-30T00:42:19.949Z,0.00
2019-05-30T00:43:19.950Z,0.00
2019-05-30T00:44:19.962Z,0.00
2019-05-30T00:45:21.433Z,0.00
2019-05-30T00:46:19.977Z,0.00
2019-05-30T00:47:19.987Z,0.00
2019-05-30T00:48:19.993Z,0.00
2019-05-30T00:49:20.003Z,0.00
2019-05-30T00:50:20.001Z,0.00
2019-05-30T00:51:20.016Z,0.00
2019-05-30T00:53:20.033Z,0.00
2019-05-30T00:54:20.046Z,0.00
2019-05-30T00:56:20.052Z,0.00
2019-05-30T00:57:20.060Z,0.00
2019-05-30T00:58:20.071Z,0.00
2019-05-30T00:59:20.087Z,0.00
2019-05-30T01:00:20.095Z,0.00
2019-05-30T01:01:20.100Z,0.00
2019-05-30T01:02:20.102Z,0.00
2019-05-30T01:03:20.113Z,0.00
2019-05-30T01:04:20.120Z,0.00
2019-05-30T01:05:20.131Z,0.00
2019-05-30T01:06:20.132Z,0.00
2019-05-30T01:07:20.138Z,0.00
2019-05-30T01:08:20.147Z,0.00
2019-05-30T01:09:20.152Z,0.00
2019-05-30T01:10:20.183Z,0.00
2019-05-30T01:11:20.181Z,0.00
2019-05-30T01:12:20.177Z,0.00
2019-05-30T01:13:20.186Z,0.00
2019-05-30T01:14:20.197Z,0.00
2019-05-30T01:15:20.214Z,0.00
2019-05-30T01:16:20.218Z,0.00
2019-05-30T01:17:20.222Z,0.00
2019-05-30T01:18:20.222Z,0.00
2019-05-30T01:19:20.234Z,0.00
2019-05-30T01:20:20.245Z,0.00
2019-05-30T01:21:20.254Z,0.00
2019-05-30T01:22:20.253Z,0.00
2019-05-30T01:23:20.274Z,0.00
2019-05-30T01:24:20.272Z,0.00
2019-05-30T01:25:20.280Z,0.00
2019-05-30T01:26:20.288Z,0.00
2019-05-30T01:27:20.302Z,0.00
2019-05-30T01:28:20.302Z,0.00
2019-05-30T01:29:20.315Z,0.00
2019-05-30T01:30:20.318Z,0.00
2019-05-30T01:31:20.327Z,0.00
2019-05-30T01:32:20.336Z,0.00
2019-05-30T01:33:20.359Z,0.00
2019-05-30T01:34:20.349Z,0.00
2019-05-30T01:35:20.352Z,0.00
2019-05-30T01:36:20.371Z,0.00
2019-05-30T01:37:20.379Z,0.00
2019-05-30T01:38:20.380Z,0.00
2019-05-30T01:39:20.387Z,0.00
2019-05-30T01:40:20.443Z,0.00
2019-05-30T01:41:20.418Z,0.00
2019-05-30T01:42:20.410Z,0.00
2019-05-30T01:43:20.418Z,0.00
2019-05-30T01:44:20.428Z,0.00
2019-05-30T01:45:20.441Z,0.00
2019-05-30T01:46:20.446Z,0.00
2019-05-30T01:47:20.455Z,0.00
2019-05-30T01:48:20.464Z,0.00
2019-05-30T01:49:20.471Z,0.00
2019-05-30T01:50:20.477Z,0.00
2019-05-30T01:51:20.486Z,0.00
2019-05-30T01:52:20.491Z,0.00
2019-05-30T01:53:20.503Z,0.00
2019-05-30T01:54:20.510Z,0.00
2019-05-30T01:55:20.511Z,0.00
2019-05-30T01:56:20.523Z,0.00
2019-05-30T01:57:20.531Z,0.00
2019-05-30T01:58:20.539Z,0.00
2019-05-30T01:59:20.540Z,0.00
2019-05-30T02:00:21.719Z,0.00
2019-05-30T02:01:24.960Z,0.00
2019-05-30T02:02:20.566Z,0.00
2019-05-30T02:03:20.574Z,0.00
2019-05-30T02:04:20.582Z,0.00
2019-05-30T02:05:20.596Z,0.00
2019-05-30T02:06:20.597Z,0.00
2019-05-30T02:07:20.611Z,0.00
2019-05-30T02:08:20.615Z,0.00
2019-05-30T02:09:20.628Z,0.00
2019-05-30T02:10:20.632Z,0.00
2019-05-30T02:11:20.646Z,0.00
2019-05-30T02:12:20.642Z,0.00
2019-05-30T02:13:20.655Z,0.00
2019-05-30T02:14:20.656Z,0.00
2019-05-30T02:15:20.663Z,0.00
2019-05-30T02:16:20.674Z,0.00
2019-05-30T02:17:20.677Z,0.00
2019-05-30T02:18:20.692Z,0.00
2019-05-30T02:19:20.703Z,0.00
2019-05-30T02:20:20.707Z,0.00
2019-05-30T02:21:20.712Z,0.00
2019-05-30T02:22:20.732Z,0.00
2019-05-30T02:23:20.729Z,0.00
2019-05-30T02:24:20.738Z,0.00
2019-05-30T02:25:20.746Z,0.00
2019-05-30T02:26:20.747Z,0.00
2019-05-30T02:27:20.760Z,0.00
2019-05-30T02:28:20.767Z,0.00
2019-05-30T02:29:20.787Z,0.00
2019-05-30T02:30:20.788Z,0.00
2019-05-30T02:33:20.812Z,0.00
2019-05-30T02:35:20.818Z,0.00
2019-05-30T02:36:20.829Z,0.00
2019-05-30T02:37:20.834Z,0.00
2019-05-30T02:38:20.840Z,0.00
2019-05-30T02:39:20.850Z,0.00
2019-05-30T02:40:20.856Z,0.00
2019-05-30T02:41:20.865Z,4.00
2019-05-30T02:42:20.871Z,4.00
2019-05-30T02:43:20.878Z,4.00
2019-05-30T02:44:20.889Z,4.00
2019-05-30T02:45:20.892Z,0.00
2019-05-30T02:46:20.903Z,0.00
2019-05-30T02:47:22.459Z,4.00
2019-05-30T02:48:20.915Z,4.00
2019-05-30T02:49:20.932Z,4.00
2019-05-30T02:50:20.932Z,8.00
2019-05-30T02:51:20.941Z,4.00
2019-05-30T02:52:20.954Z,8.00
2019-05-30T02:53:20.959Z,4.00
2019-05-30T02:54:20.967Z,4.00
2019-05-30T02:55:20.974Z,8.00
2019-05-30T02:57:20.986Z,12.00
2019-05-30T02:58:20.992Z,12.00
2019-05-30T02:59:21.002Z,12.00
2019-05-30T03:01:21.015Z,12.00
2019-05-30T03:02:21.042Z,16.00
2019-05-30T03:03:21.029Z,16.00
2019-05-30T03:04:21.039Z,20.00
2019-05-30T03:05:21.048Z,20.00
2019-05-30T03:06:21.057Z,24.00
2019-05-30T03:07:21.064Z,24.00
2019-05-30T03:08:21.072Z,28.00
2019-05-30T03:09:21.072Z,32.00
2019-05-30T03:10:21.085Z,32.00
2019-05-30T03:11:21.086Z,36.00
2019-05-30T03:12:21.102Z,40.00
2019-05-30T03:13:21.103Z,44.00
2019-05-30T03:14:21.111Z,44.00
2019-05-30T03:15:21.121Z,48.00
2019-05-30T03:16:21.142Z,48.00
2019-05-30T03:17:21.140Z,52.00
2019-05-30T03:18:21.142Z,52.00
2019-05-30T03:19:21.150Z,56.00
2019-05-30T03:20:23.416Z,64.00
2019-05-30T03:21:21.165Z,64.00
2019-05-30T03:22:21.172Z,68.00
2019-05-30T03:23:21.180Z,72.00
2019-05-30T03:24:21.193Z,76.00
2019-05-30T03:25:21.199Z,84.00
2019-05-30T03:26:21.207Z,88.00
2019-05-30T03:27:21.212Z,96.00
2019-05-30T03:28:21.219Z,104.00
2019-05-30T03:29:21.226Z,112.00
2019-05-30T03:30:27.326Z,120.00
2019-05-30T03:31:28.771Z,132.00
2019-05-30T03:33:37.411Z,156.00
2019-05-30T03:34:27.537Z,168.00
2019-05-30T03:35:28.737Z,180.00
2019-05-30T03:36:29.681Z,196.00
2019-05-30T03:37:28.520Z,208.00
2019-05-30T03:38:21.295Z,228.00
2019-05-30T03:39:21.314Z,244.00
2019-05-30T03:40:23.477Z,252.00
2019-05-30T03:41:21.313Z,268.00
2019-05-30T03:42:21.345Z,280.00
2019-05-30T03:43:21.344Z,292.00
2019-05-30T03:44:21.346Z,304.00
2019-05-30T03:45:21.352Z,316.00
2019-05-30T03:46:21.368Z,328.00
2019-05-30T03:47:21.372Z,340.00
2019-05-30T03:48:21.379Z,352.00
2019-05-30T03:49:21.383Z,364.00
2019-05-30T03:50:21.393Z,376.00
2019-05-30T03:51:21.406Z,396.00
2019-05-30T03:52:21.407Z,412.00
2019-05-30T03:53:21.414Z,428.00
2019-05-30T03:54:21.421Z,440.00
2019-05-30T03:55:21.431Z,448.00
2019-05-30T03:56:21.452Z,464.00
2019-05-30T03:57:21.442Z,476.00
2019-05-30T03:58:21.451Z,492.00
2019-05-30T03:59:21.466Z,508.00
2019-05-30T04:00:21.463Z,528.00
2019-05-30T04:01:21.491Z,540.00
2019-05-30T04:02:21.487Z,552.00
2019-05-30T04:03:21.487Z,564.00
2019-05-30T04:04:21.499Z,564.00
2019-05-30T04:05:21.541Z,568.00
2019-05-30T04:06:21.513Z,576.00
2019-05-30T04:07:21.526Z,588.00
2019-05-30T04:08:21.529Z,608.00
2019-05-30T04:09:24.733Z,620.00
2019-05-30T04:10:21.546Z,636.00
2019-05-30T04:11:21.552Z,652.00
2019-05-30T04:12:21.563Z,660.00
2019-05-30T04:13:21.570Z,668.00
2019-05-30T04:14:21.573Z,668.00
2019-05-30T04:15:21.582Z,672.00
2019-05-30T04:16:21.592Z,672.00
2019-05-30T04:17:21.603Z,668.00
2019-05-30T04:18:21.610Z,668.00
2019-05-30T04:19:21.611Z,676.00
2019-05-30T04:20:23.191Z,684.00
2019-05-30T04:21:21.869Z,700.00
2019-05-30T04:22:21.635Z,708.00
2019-05-30T04:23:21.646Z,732.00
2019-05-30T04:24:21.651Z,748.00
2019-05-30T04:25:21.660Z,768.00
2019-05-30T04:26:21.671Z,788.00
2019-05-30T04:27:21.676Z,808.00
2019-05-30T04:28:21.687Z,828.00
2019-05-30T04:29:21.695Z,844.00
2019-05-30T04:30:21.717Z,868.00
2019-05-30T04:31:21.708Z,892.00
2019-05-30T04:32:21.715Z,912.00
2019-05-30T04:33:32.705Z,932.00
2019-05-30T04:34:21.741Z,948.00
2019-05-30T04:35:21.742Z,960.00
2019-05-30T04:36:21.749Z,960.00
2019-05-30T04:37:21.948Z,960.00
2019-05-30T04:38:21.772Z,960.00
2019-05-30T04:39:21.828Z,956.00
2019-05-30T04:40:21.913Z,960.00
2019-05-30T04:41:21.973Z,972.00
2019-05-30T04:42:21.790Z,992.00
2019-05-30T04:43:21.816Z,1012.00
2019-05-30T04:44:21.818Z,1044.00
2019-05-30T04:45:27.077Z,1076.00
2019-05-30T04:46:22.217Z,1120.00
2019-05-30T04:47:21.839Z,1148.00
2019-05-30T04:48:21.840Z,1176.00
2019-05-30T04:49:21.909Z,1196.00
2019-05-30T04:50:21.862Z,1224.00
2019-05-30T04:51:21.989Z,1248.00
2019-05-30T04:52:24.609Z,1268.00
2019-05-30T04:53:21.883Z,1292.00
2019-05-30T04:54:21.889Z,1316.00
2019-05-30T04:55:23.152Z,1344.00
2019-05-30T04:56:22.242Z,1376.00
2019-05-30T04:57:26.899Z,1412.00
2019-05-30T04:58:24.350Z,1448.00
2019-05-30T04:59:22.264Z,1484.00
2019-05-30T05:00:21.943Z,1524.00
2019-05-30T05:01:22.337Z,1568.00
2019-05-30T05:02:23.307Z,1600.00
2019-05-30T05:03:41.699Z,1636.00
2019-05-30T05:05:26.349Z,1688.00
2019-05-30T05:06:22.218Z,1716.00
2019-05-30T05:07:22.184Z,1728.00
2019-05-30T05:08:22.238Z,1736.00
2019-05-30T05:09:22.473Z,1728.00
2019-05-30T05:10:22.555Z,1716.00
2019-05-30T05:11:25.052Z,1700.00
2019-05-30T05:12:22.438Z,1688.00
2019-05-30T05:13:22.558Z,1680.00
2019-05-30T05:14:22.714Z,1688.00
2019-05-30T05:15:22.779Z,1708.00
2019-05-30T05:16:30.765Z,1740.00
2019-05-30T05:17:23.125Z,1788.00
2019-05-30T05:18:23.457Z,1860.00
2019-05-30T05:19:25.417Z,1888.00
2019-05-30T05:20:23.356Z,1936.00
2019-05-30T05:21:23.127Z,1980.00
2019-05-30T05:22:23.230Z,2024.00
2019-05-30T05:23:23.218Z,2064.00
2019-05-30T05:24:23.380Z,2088.00
2019-05-30T05:25:22.145Z,2112.00
2019-05-30T05:26:22.152Z,2140.00
2019-05-30T05:27:22.159Z,2180.00
2019-05-30T05:28:22.172Z,2236.00
2019-05-30T05:29:22.179Z,2320.00
2019-05-30T05:30:22.525Z,2376.00
2019-05-30T05:31:22.489Z,2416.00
2019-05-30T05:32:22.656Z,2456.00
2019-05-30T05:33:22.685Z,2452.00
2019-05-30T05:34:22.809Z,2460.00
2019-05-30T05:35:23.032Z,2464.00
2019-05-30T05:36:23.050Z,2448.00
2019-05-30T05:37:23.288Z,2424.00
2019-05-30T05:38:22.471Z,2380.00
2019-05-30T05:39:22.351Z,2320.00
2019-05-30T05:40:22.504Z,2256.00
2019-05-30T05:41:22.394Z,2176.00
2019-05-30T05:42:22.614Z,2108.00
2019-05-30T05:43:22.503Z,2052.00
2019-05-30T05:44:22.487Z,2016.00
2019-05-30T05:45:22.826Z,1988.00
2019-05-30T05:46:22.598Z,1980.00
2019-05-30T05:47:22.817Z,2012.00
2019-05-30T05:48:22.646Z,2076.00
2019-05-30T05:49:22.645Z,2152.00
2019-05-30T05:50:22.602Z,2212.00
2019-05-30T05:51:22.798Z,2272.00
2019-05-30T05:52:22.816Z,2316.00
2019-05-30T05:53:23.034Z,2364.00
2019-05-30T05:54:22.969Z,2408.00
2019-05-30T05:55:22.909Z,2452.00
2019-05-30T05:56:22.886Z,2492.00
2019-05-30T05:57:22.940Z,2536.00
2019-05-30T05:58:23.992Z,2584.00
2019-05-30T05:59:23.068Z,2624.00
2019-05-30T06:00:23.321Z,2624.00
2019-05-30T06:01:23.394Z,2588.00
2019-05-30T06:02:23.247Z,2536.00
2019-05-30T06:03:22.466Z,2484.00
2019-05-30T06:04:23.295Z,2428.00
2019-05-30T06:05:22.495Z,2400.00
2019-05-30T06:06:23.421Z,2384.00
2019-05-30T06:07:22.555Z,2364.00
2019-05-30T06:09:22.699Z,2328.00
2019-05-30T06:10:23.658Z,2288.00
2019-05-30T06:11:22.765Z,2236.00
2019-05-30T06:12:23.715Z,2232.00
2019-05-30T06:13:22.881Z,2384.00
2019-05-30T06:14:24.098Z,2256.00
2019-05-30T06:15:22.949Z,2232.00
2019-05-30T06:16:22.580Z,2192.00
2019-05-30T06:17:23.094Z,2152.00
2019-05-30T06:18:22.609Z,2128.00
2019-05-30T06:19:23.201Z,2116.00
2019-05-30T06:20:23.328Z,2148.00
2019-05-30T06:21:23.438Z,2216.00
2019-05-30T06:22:23.588Z,2304.00
2019-05-30T06:23:23.722Z,2356.00
2019-05-30T06:24:23.668Z,2440.00
2019-05-30T06:25:26.646Z,2512.00
2019-05-30T06:26:24.139Z,2568.00
2019-05-30T06:27:23.907Z,2608.00
2019-05-30T06:28:22.682Z,2608.00
2019-05-30T06:29:22.692Z,2548.00
2019-05-30T06:30:22.704Z,2476.00
2019-05-30T06:31:22.713Z,2456.00
2019-05-30T06:32:22.992Z,2492.00
2019-05-30T06:33:23.486Z,2560.00
2019-05-30T06:34:35.978Z,2608.00
2019-05-30T06:35:22.995Z,2616.00
2019-05-30T06:36:23.066Z,2692.00
2019-05-30T06:37:23.163Z,2696.00
2019-05-30T06:38:23.152Z,2700.00
2019-05-30T06:39:23.440Z,2672.00
2019-05-30T06:40:23.747Z,2696.00
2019-05-30T06:41:23.508Z,2700.00
2019-05-30T06:42:23.658Z,2696.00
2019-05-30T06:43:24.208Z,2656.00
2019-05-30T06:44:23.888Z,2632.00
2019-05-30T06:45:24.079Z,2620.00
2019-05-30T06:46:24.109Z,2580.00
2019-05-30T06:47:22.849Z,2608.00
2019-05-30T06:48:22.861Z,2688.00
2019-05-30T06:49:22.896Z,2776.00
2019-05-30T06:50:22.876Z,2872.00
2019-05-30T06:51:22.892Z,2936.00
2019-05-30T06:52:22.908Z,2936.00
2019-05-30T06:53:23.282Z,2976.00
2019-05-30T06:54:24.308Z,3072.00
2019-05-30T06:55:23.166Z,3180.00
2019-05-30T06:56:23.297Z,3116.00
2019-05-30T06:57:23.179Z,3148.00
2019-05-30T06:58:40.049Z,3352.00
2019-05-30T06:59:23.464Z,3636.00
2019-05-30T07:00:23.657Z,3888.00
2019-05-30T07:01:23.756Z,3984.00
2019-05-30T07:02:24.117Z,3988.00
2019-05-30T07:03:24.132Z,3892.00
2019-05-30T07:05:24.300Z,3736.00
2019-05-30T07:06:23.346Z,3824.00
2019-05-30T07:07:23.317Z,3960.00
2019-05-30T07:08:23.039Z,4056.00
2019-05-30T07:09:23.059Z,4212.00
2019-05-30T07:10:23.051Z,4188.00
2019-05-30T07:11:23.066Z,4244.00
2019-05-30T07:12:23.080Z,4572.00
2019-05-30T07:13:23.320Z,4856.00
2019-05-30T07:14:23.120Z,5208.00
2019-05-30T07:15:23.282Z,5596.00
2019-05-30T07:16:23.403Z,5868.00
2019-05-30T07:17:23.264Z,5828.00
2019-05-30T07:18:23.431Z,5500.00
2019-05-30T07:19:23.385Z,5144.00
2019-05-30T07:20:23.477Z,5044.00
2019-05-30T07:21:23.543Z,5028.00
2019-05-30T07:22:23.531Z,5060.00
2019-05-30T07:23:23.769Z,4844.00
2019-05-30T07:24:23.720Z,4600.00
2019-05-30T07:25:23.778Z,4500.00
2019-05-30T07:26:23.860Z,4328.00
2019-05-30T07:27:23.789Z,4352.00
2019-05-30T07:28:23.814Z,4164.00
2019-05-30T07:29:23.967Z,3984.00
2019-05-30T07:30:23.795Z,3744.00
2019-05-30T07:31:24.018Z,3612.00
2019-05-30T07:33:23.974Z,3604.00
2019-05-30T07:34:23.921Z,3768.00
2019-05-30T07:35:23.955Z,3892.00
2019-05-30T07:36:24.073Z,4040.00
2019-05-30T07:37:24.503Z,4148.00
2019-05-30T07:38:24.296Z,4224.00
2019-05-30T07:39:26.331Z,4292.00
2019-05-30T07:40:24.528Z,4292.00
2019-05-30T07:41:24.548Z,4288.00
2019-05-30T07:42:24.382Z,4364.00
2019-05-30T07:43:25.355Z,4564.00
2019-05-30T07:44:24.506Z,5056.00
2019-05-30T07:46:23.391Z,6012.00
2019-05-30T07:47:23.398Z,6060.00
2019-05-30T07:48:23.413Z,6024.00
2019-05-30T07:49:23.427Z,5932.00
2019-05-30T07:50:23.424Z,5876.00
2019-05-30T07:51:24.485Z,5488.00
2019-05-30T07:52:23.445Z,5388.00
2019-05-30T07:53:23.447Z,5428.00
2019-05-30T07:54:23.474Z,5396.00
2019-05-30T07:55:23.482Z,5664.00
2019-05-30T07:56:23.486Z,5764.00
2019-05-30T07:57:23.499Z,5512.00
2019-05-30T07:58:23.501Z,5380.00
2019-05-30T07:59:23.530Z,5536.00
2019-05-30T08:00:23.525Z,5792.00
2019-05-30T08:01:23.532Z,5976.00
2019-05-30T08:02:23.539Z,6244.00
2019-05-30T08:03:23.555Z,6584.00
2019-05-30T08:04:23.564Z,6612.00
2019-05-30T08:05:25.012Z,6220.00
2019-05-30T08:06:23.599Z,5348.00
2019-05-30T08:07:23.593Z,4848.00
2019-05-30T08:08:23.591Z,4480.00
2019-05-30T08:09:23.623Z,4472.00
2019-05-30T08:10:23.620Z,4672.00
2019-05-30T08:11:23.626Z,4964.00
2019-05-30T08:12:23.642Z,5088.00
2019-05-30T08:13:23.651Z,4884.00
2019-05-30T08:14:23.663Z,4820.00
2019-05-30T08:15:23.673Z,5048.00
2019-05-30T08:16:23.682Z,5316.00
2019-05-30T08:17:23.693Z,5716.00
2019-05-30T08:18:23.718Z,6172.00
2019-05-30T08:19:23.713Z,6460.00
2019-05-30T08:20:23.721Z,6340.00
2019-05-30T08:21:23.731Z,6360.00
2019-05-30T08:23:23.749Z,7244.00
2019-05-30T08:24:23.759Z,8156.00
2019-05-30T08:25:23.784Z,8784.00
2019-05-30T08:26:23.779Z,8908.00
2019-05-30T08:27:23.787Z,8436.00
2019-05-30T08:28:24.498Z,8220.00
2019-05-30T08:29:23.811Z,8096.00
2019-05-30T08:30:23.816Z,8092.00
2019-05-30T08:31:23.831Z,7424.00
2019-05-30T08:32:23.842Z,6408.00
2019-05-30T08:33:23.850Z,6348.00
2019-05-30T08:34:23.860Z,6524.00
2019-05-30T08:35:39.119Z,6652.00
2019-05-30T08:36:23.890Z,6560.00
2019-05-30T08:37:23.916Z,6556.00
2019-05-30T08:38:23.891Z,6348.00
2019-05-30T08:39:23.918Z,5940.00
2019-05-30T08:40:23.928Z,5748.00
2019-05-30T08:41:23.928Z,5940.00
2019-05-30T08:42:23.946Z,6156.00
2019-05-30T08:43:23.962Z,6496.00
2019-05-30T08:44:23.968Z,6612.00
2019-05-30T08:45:23.975Z,6508.00
2019-05-30T08:46:23.980Z,6492.00
2019-05-30T08:47:24.003Z,6560.00
2019-05-30T08:48:24.015Z,6844.00
2019-05-30T08:49:24.013Z,6840.00
2019-05-30T08:50:24.018Z,6764.00
2019-05-30T08:51:24.026Z,7112.00
2019-05-30T08:52:24.036Z,7216.00
2019-05-30T08:53:24.051Z,6976.00
2019-05-30T08:54:24.070Z,6640.00
2019-05-30T08:55:24.071Z,6488.00
2019-05-30T08:56:24.080Z,6484.00
2019-05-30T08:57:24.090Z,6260.00
2019-05-30T08:58:24.099Z,5788.00
2019-05-30T08:59:24.129Z,5724.00
2019-05-30T09:00:24.122Z,5912.00
2019-05-30T09:01:24.126Z,5696.00
2019-05-30T09:02:24.138Z,5480.00
2019-05-30T09:03:24.151Z,5268.00
2019-05-30T09:04:25.015Z,5428.00
2019-05-30T09:05:24.179Z,5544.00
2019-05-30T09:06:24.181Z,5576.00
2019-05-30T09:07:24.191Z,5380.00
2019-05-30T09:08:24.196Z,5260.00
2019-05-30T09:09:24.221Z,5164.00
2019-05-30T09:10:24.223Z,4884.00
2019-05-30T09:11:24.225Z,4724.00
2019-05-30T09:12:24.253Z,4536.00
2019-05-30T09:13:24.254Z,4308.00
2019-05-30T09:14:24.269Z,4132.00
2019-05-30T09:15:24.312Z,4068.00
2019-05-30T09:16:24.315Z,4004.00
2019-05-30T09:17:24.288Z,3944.00
2019-05-30T09:18:24.291Z,3932.00
2019-05-30T09:19:24.312Z,4000.00
2019-05-30T09:20:24.314Z,4388.00
2019-05-30T09:21:24.333Z,4956.00
2019-05-30T09:22:24.353Z,5624.00
2019-05-30T09:23:24.357Z,6040.00
2019-05-30T09:24:24.363Z,6112.00
2019-05-30T09:25:24.364Z,6004.00
2019-05-30T09:26:24.382Z,5808.00
2019-05-30T09:27:24.387Z,5984.00
2019-05-30T09:28:24.393Z,6628.00
2019-05-30T09:29:24.416Z,7440.00
2019-05-30T09:30:24.420Z,8308.00
2019-05-30T09:31:24.427Z,8600.00
2019-05-30T09:32:24.435Z,8272.00
2019-05-30T09:34:24.458Z,6372.00
2019-05-30T09:35:24.482Z,5948.00
2019-05-30T09:36:24.472Z,5436.00
2019-05-30T09:37:24.487Z,4968.00
2019-05-30T09:38:24.494Z,5032.00
2019-05-30T09:39:24.505Z,4736.00
2019-05-30T09:40:24.515Z,4368.00
2019-05-30T09:41:24.528Z,4120.00
2019-05-30T09:42:24.531Z,3864.00
2019-05-30T09:43:24.544Z,3828.00
2019-05-30T09:44:24.554Z,3692.00
2019-05-30T09:45:24.574Z,3660.00
2019-05-30T09:46:24.574Z,3680.00
2019-05-30T09:47:24.586Z,3684.00
2019-05-30T09:48:24.594Z,3544.00
2019-05-30T09:49:24.603Z,3544.00
2019-05-30T09:50:24.614Z,4000.00
2019-05-30T09:51:24.625Z,4544.00
2019-05-30T09:52:24.649Z,4740.00
2019-05-30T09:53:24.651Z,5208.00
2019-05-30T09:54:24.657Z,5588.00
2019-05-30T09:55:24.658Z,5948.00
2019-05-30T09:56:24.686Z,6372.00
2019-05-30T09:57:24.678Z,6276.00
2019-05-30T09:58:24.691Z,6464.00
2019-05-30T09:59:24.690Z,6164.00
2019-05-30T10:00:24.710Z,5616.00
2019-05-30T10:01:24.710Z,5448.00
2019-05-30T10:02:24.736Z,5504.00
2019-05-30T10:03:24.755Z,4832.00
2019-05-30T10:04:24.741Z,4500.00
2019-05-30T10:05:25.089Z,4420.00
2019-05-30T10:06:29.427Z,4664.00
2019-05-30T10:07:24.784Z,5372.00
2019-05-30T10:08:25.537Z,5660.00
2019-05-30T10:09:24.803Z,5200.00
2019-05-30T10:10:24.801Z,4900.00
2019-05-30T10:11:24.840Z,4360.00
2019-05-30T10:12:24.827Z,4068.00
2019-05-30T10:13:24.842Z,4100.00
2019-05-30T10:14:24.845Z,4236.00
2019-05-30T10:15:24.864Z,4504.00
2019-05-30T10:16:24.863Z,4808.00
2019-05-30T10:17:24.874Z,5404.00
2019-05-30T10:18:24.882Z,5648.00
2019-05-30T10:19:24.899Z,6312.00
2019-05-30T10:20:24.908Z,6704.00
2019-05-30T10:21:24.915Z,5728.00
2019-05-30T10:22:24.921Z,5124.00
2019-05-30T10:23:24.942Z,4656.00
2019-05-30T10:24:24.950Z,4348.00
2019-05-30T10:25:24.963Z,4604.00
2019-05-30T10:26:24.959Z,5336.00
2019-05-30T10:27:24.972Z,5564.00
2019-05-30T10:28:24.972Z,5724.00
2019-05-30T10:29:24.989Z,5740.00
2019-05-30T10:30:25.004Z,5976.00
2019-05-30T10:31:25.010Z,6336.00
2019-05-30T10:32:25.020Z,5784.00
2019-05-30T10:33:25.075Z,5268.00
2019-05-30T10:34:25.043Z,5468.00
2019-05-30T10:35:25.049Z,5928.00
2019-05-30T10:36:25.062Z,6124.00
2019-05-30T10:37:25.071Z,6368.00
2019-05-30T10:38:25.084Z,8128.00
2019-05-30T10:39:25.087Z,9320.00
2019-05-30T10:40:25.095Z,10476.00
2019-05-30T10:41:25.121Z,10704.00
2019-05-30T10:42:25.129Z,10020.00
2019-05-30T10:43:25.132Z,10068.00
2019-05-30T10:44:25.135Z,9772.00
2019-05-30T10:45:25.147Z,9264.00
2019-05-30T10:46:25.166Z,8256.00
2019-05-30T10:47:25.181Z,7332.00
2019-05-30T10:48:25.184Z,6740.00
2019-05-30T10:49:34.168Z,7036.00
2019-05-30T10:50:25.191Z,8188.00
2019-05-30T10:51:25.207Z,9236.00
2019-05-30T10:52:25.219Z,8268.00
2019-05-30T10:53:25.232Z,8576.00
2019-05-30T10:54:25.243Z,9152.00
2019-05-30T10:55:25.251Z,9776.00
2019-05-30T10:56:25.281Z,9772.00
2019-05-30T10:57:25.281Z,9180.00
2019-05-30T10:58:25.301Z,8136.00
2019-05-30T10:59:25.310Z,9044.00
2019-05-30T11:00:25.305Z,10168.00
2019-05-30T11:01:25.326Z,10044.00
2019-05-30T11:02:25.360Z,9816.00
2019-05-30T11:03:25.333Z,8292.00
2019-05-30T11:04:25.351Z,6316.00
2019-05-30T11:05:25.356Z,5372.00
2019-05-30T11:06:25.385Z,5400.00
2019-05-30T11:07:25.377Z,5568.00
2019-05-30T11:08:25.393Z,5756.00
2019-05-30T11:09:25.406Z,6028.00
2019-05-30T11:10:25.414Z,5372.00
2019-05-30T11:11:25.426Z,5100.00
2019-05-30T11:12:25.434Z,5000.00
2019-05-30T11:13:25.451Z,5080.00
2019-05-30T11:14:25.450Z,5416.00
2019-05-30T11:15:25.455Z,5644.00
2019-05-30T11:16:25.481Z,5416.00
2019-05-30T11:17:25.489Z,5000.00
2019-05-30T11:18:25.495Z,4732.00
2019-05-30T11:19:25.520Z,4444.00
2019-05-30T11:20:25.514Z,4360.00
2019-05-30T11:21:25.525Z,4356.00
2019-05-30T11:22:25.544Z,4504.00
2019-05-30T11:23:25.552Z,4556.00
2019-05-30T11:24:25.583Z,4544.00
2019-05-30T11:25:25.573Z,4952.00
2019-05-30T11:26:25.587Z,4992.00
2019-05-30T11:27:25.591Z,4972.00
2019-05-30T11:28:25.601Z,5036.00
2019-05-30T11:29:25.609Z,5300.00
2019-05-30T11:30:25.616Z,5496.00
2019-05-30T11:31:25.630Z,5432.00
2019-05-30T11:32:25.646Z,5260.00
2019-05-30T11:33:25.666Z,4988.00
2019-05-30T11:34:25.668Z,4792.00
2019-05-30T11:35:25.666Z,4840.00
2019-05-30T11:36:25.698Z,5048.00
2019-05-30T11:37:25.688Z,5048.00
2019-05-30T11:38:25.706Z,4868.00
2019-05-30T11:39:25.722Z,4768.00
2019-05-30T11:40:25.723Z,4632.00
2019-05-30T11:41:25.735Z,4572.00
2019-05-30T11:42:25.739Z,4500.00
2019-05-30T11:43:25.756Z,4968.00
2019-05-30T11:44:25.770Z,5088.00
2019-05-30T11:45:25.776Z,4804.00
2019-05-30T11:46:25.795Z,5172.00
2019-05-30T11:47:25.790Z,5340.00
2019-05-30T11:48:25.800Z,4980.00
2019-05-30T11:49:25.817Z,4684.00
2019-05-30T11:50:25.821Z,4240.00
2019-05-30T11:51:25.834Z,4072.00
2019-05-30T11:52:25.843Z,4088.00
2019-05-30T11:53:25.848Z,4104.00
2019-05-30T11:54:25.868Z,4020.00
2019-05-30T11:55:25.881Z,3996.00
2019-05-30T11:56:25.887Z,3940.00
2019-05-30T11:57:25.891Z,3948.00
2019-05-30T11:58:25.911Z,4036.00
2019-05-30T11:59:25.909Z,3752.00
2019-05-30T12:00:25.919Z,3616.00
2019-05-30T12:01:25.929Z,3556.00
2019-05-30T12:02:25.948Z,3704.00
2019-05-30T12:03:29.253Z,3896.00
2019-05-30T12:04:25.965Z,3936.00
2019-05-30T12:05:25.964Z,3784.00
2019-05-30T12:06:25.989Z,3636.00
2019-05-30T12:07:35.695Z,3688.00
2019-05-30T12:08:26.006Z,3652.00
2019-05-30T12:10:26.020Z,3572.00
2019-05-30T12:11:26.044Z,3440.00
2019-05-30T12:12:26.045Z,3420.00
2019-05-30T12:13:26.057Z,3408.00
2019-05-30T12:14:26.088Z,3516.00
2019-05-30T12:15:26.118Z,3948.00
2019-05-30T12:17:26.088Z,4360.00
2019-05-30T12:18:26.100Z,4256.00
2019-05-30T12:19:26.121Z,4156.00
2019-05-30T12:20:26.133Z,4152.00
2019-05-30T12:21:29.617Z,4168.00
2019-05-30T12:22:26.138Z,4056.00
2019-05-30T12:23:26.156Z,3884.00
2019-05-30T12:24:26.159Z,4188.00
2019-05-30T12:25:26.169Z,4656.00
2019-05-30T12:26:27.093Z,4452.00
2019-05-30T12:27:26.192Z,4356.00
2019-05-30T12:28:26.206Z,4460.00
2019-05-30T12:29:26.222Z,4508.00
2019-05-30T12:30:26.219Z,4596.00
2019-05-30T12:31:26.251Z,4308.00
2019-05-30T12:32:26.240Z,3996.00
2019-05-30T12:33:26.254Z,3696.00
2019-05-30T12:34:26.263Z,3564.00
2019-05-30T12:35:26.262Z,3612.00
2019-05-30T12:36:26.277Z,3684.00
2019-05-30T12:37:26.285Z,3860.00
2019-05-30T12:38:26.306Z,3828.00
2019-05-30T12:39:26.319Z,3788.00
2019-05-30T12:40:26.325Z,3640.00
2019-05-30T12:41:26.325Z,3500.00
2019-05-30T12:42:26.348Z,3384.00
2019-05-30T12:43:26.347Z,3460.00